Ashkum, Illinois
Current Conditions -  °F | °C
As of 2:35 PM on Tuesday 25 Nov 2014 (Local Time) from KPNT Reporting Station
Overcast Overcast  
Wind Chill: 16°   Ceiling: 1800
Heat Index: 27°   Visibility: 10mi
Dew Point: 22°   Wind: 13mph
Humidity: 79%   Direction: 260°W
Pressure: 30.16"   Gusts: NA
Location:  40.88°N, 87.96°W
Report Text: KPNT 252035Z AUTO 26011KT 10SM OVC018 M03/M06 A3016 RMK AO2 T10271058
Loading
Personal Weather Stations






























Interactive Weather Map New forecast layout! Learn more

10-Day Weather Forecast

Advertisements
Track Severe Weather on mobile